Terminal Aerodrome Forecast
Issued by NWS

Home | Current Version | Previous Version | Text Only | Print | Product List | Glossary On
Versions: 1 2 3 4 5 6 7 8 9 10 11 12
000
FTUS41 KCAR 062342
TAFBHB
TAF
KBHB 062342Z 0700/0724 21010KT P6SM SCT110
     FM070400 23005KT P6SM SCT110
     FM071400 31011G18KT P6SM SCT110
      AMD LTD TO CLD VIS AND WIND=

USA.gov is the U.S. government's official web portal to all federal, state and local government web resources and services.